createdAt,value
2023-05-05T00:00:44.832Z,5.60
2023-05-05T00:01:48.403Z,5.60
2023-05-05T00:03:56.061Z,4.50
2023-05-05T00:04:58.776Z,5.10
2023-05-05T00:06:02.572Z,4.97
2023-05-05T00:07:05.226Z,4.35
2023-05-05T00:08:08.785Z,5.15
2023-05-05T00:10:14.883Z,4.32
2023-05-05T00:11:17.549Z,4.93
2023-05-05T00:12:21.206Z,5.53
2023-05-05T00:14:27.147Z,5.03
2023-05-05T00:15:29.843Z,5.55
2023-05-05T00:16:33.680Z,5.90
2023-05-05T00:17:36.499Z,6.00
2023-05-05T00:18:41.477Z,5.25
2023-05-05T00:19:44.079Z,5.15
2023-05-05T00:20:48.357Z,5.68
2023-05-05T00:21:52.386Z,5.40
2023-05-05T00:22:55.940Z,4.68
2023-05-05T00:25:01.801Z,4.60
2023-05-05T00:26:23.332Z,4.82
2023-05-05T00:27:27.275Z,4.82
2023-05-05T00:28:29.730Z,4.85
2023-05-05T00:29:33.651Z,5.32
2023-05-05T00:30:36.665Z,5.78
2023-05-05T00:31:40.544Z,5.90
2023-05-05T00:32:43.172Z,5.68
2023-05-05T00:33:48.379Z,5.60
2023-05-05T00:34:51.021Z,6.15
2023-05-05T00:35:54.829Z,6.40
2023-05-05T00:38:03.189Z,6.25
2023-05-05T00:39:06.863Z,5.78
2023-05-05T00:40:10.793Z,6.10
2023-05-05T00:41:14.569Z,6.03
2023-05-05T00:42:17.201Z,6.38
2023-05-05T00:43:21.256Z,6.25
2023-05-05T00:44:37.348Z,6.50
2023-05-05T00:45:43.094Z,6.80
2023-05-05T00:46:46.213Z,6.20
2023-05-05T00:47:51.619Z,6.32
2023-05-05T00:48:56.464Z,6.30
2023-05-05T00:50:00.408Z,5.95
2023-05-05T00:51:03.044Z,5.88
2023-05-05T00:52:08.078Z,5.97
2023-05-05T00:53:11.815Z,5.97
2023-05-05T00:54:14.469Z,6.30
2023-05-05T00:55:18.540Z,6.07
2023-05-05T00:56:23.469Z,6.18
2023-05-05T00:57:26.495Z,6.53
2023-05-05T00:58:30.866Z,6.13
2023-05-05T00:59:34.264Z,6.20
2023-05-05T01:00:37.992Z,6.55
2023-05-05T01:02:44.201Z,5.47
2023-05-05T01:03:47.086Z,6.47
2023-05-05T01:04:52.944Z,6.22
2023-05-05T01:06:06.302Z,6.10
2023-05-05T01:07:17.527Z,6.20
2023-05-05T01:08:37.227Z,6.43
2023-05-05T01:09:50.695Z,6.30
2023-05-05T01:11:04.785Z,6.22
2023-05-05T01:12:16.979Z,6.43
2023-05-05T01:13:29.957Z,6.07
2023-05-05T01:14:39.880Z,5.65
2023-05-05T01:15:50.061Z,6.10
2023-05-05T01:16:59.373Z,6.07
2023-05-05T01:18:15.662Z,5.32
2023-05-05T01:20:42.075Z,4.90
2023-05-05T01:21:50.147Z,5.25
2023-05-05T01:22:58.801Z,4.80
2023-05-05T01:24:23.820Z,5.00
2023-05-05T01:25:57.867Z,4.95
2023-05-05T01:27:21.322Z,4.53
2023-05-05T01:28:31.697Z,3.88
2023-05-05T01:30:02.415Z,4.60
2023-05-05T01:31:18.297Z,4.32
2023-05-05T01:32:27.923Z,4.00
2023-05-05T01:33:37.285Z,3.70
2023-05-05T01:34:45.616Z,4.18
2023-05-05T01:35:52.783Z,4.40
2023-05-05T01:37:04.911Z,4.63
2023-05-05T01:38:14.194Z,3.97
2023-05-05T01:39:19.402Z,4.03
2023-05-05T01:40:26.468Z,3.80
2023-05-05T01:41:33.792Z,4.00
2023-05-05T01:42:38.437Z,4.13
2023-05-05T01:43:46.021Z,4.05
2023-05-05T01:44:50.079Z,4.55
2023-05-05T01:45:56.214Z,4.20
2023-05-05T01:47:01.647Z,4.55
2023-05-05T01:48:08.642Z,4.60
2023-05-05T01:49:12.314Z,4.30
2023-05-05T01:50:17.819Z,4.22
2023-05-05T01:51:23.594Z,4.03
2023-05-05T01:52:29.430Z,4.38
2023-05-05T01:53:33.077Z,4.50
2023-05-05T01:54:37.551Z,4.20
2023-05-05T01:55:41.057Z,4.82
2023-05-05T01:57:50.106Z,4.32
2023-05-05T01:58:56.134Z,4.25
2023-05-05T01:59:59.358Z,4.30
2023-05-05T02:01:04.211Z,5.00
2023-05-05T02:02:09.572Z,4.50
2023-05-05T02:03:16.948Z,4.70
2023-05-05T02:04:22.973Z,4.45
2023-05-05T02:05:28.182Z,4.88
2023-05-05T02:06:32.758Z,4.85
2023-05-05T02:07:37.451Z,4.78
2023-05-05T02:08:42.172Z,5.03
2023-05-05T02:09:46.434Z,4.80
2023-05-05T02:10:50.406Z,4.25
2023-05-05T02:11:54.636Z,4.72
2023-05-05T02:12:59.550Z,4.53
2023-05-05T02:14:04.583Z,4.32
2023-05-05T02:15:09.290Z,4.30
2023-05-05T02:16:14.663Z,4.28
2023-05-05T02:17:19.018Z,4.25
2023-05-05T02:18:26.196Z,4.32
2023-05-05T02:19:32.316Z,4.18
2023-05-05T02:20:37.587Z,3.72
2023-05-05T02:21:41.649Z,4.18
2023-05-05T02:22:45.701Z,4.70
2023-05-05T02:23:52.035Z,4.10
2023-05-05T02:24:56.251Z,4.60
2023-05-05T02:26:06.660Z,4.18
2023-05-05T02:27:12.372Z,4.00
2023-05-05T02:28:21.297Z,3.70
2023-05-05T02:29:31.491Z,4.20
2023-05-05T02:30:36.956Z,4.00
2023-05-05T02:31:45.596Z,4.07
2023-05-05T02:32:54.271Z,4.32
2023-05-05T02:34:01.679Z,4.13
2023-05-05T02:35:11.283Z,4.18
2023-05-05T02:36:20.652Z,3.65
2023-05-05T02:37:27.808Z,3.90
2023-05-05T02:38:34.281Z,4.30
2023-05-05T02:39:43.778Z,3.78
2023-05-05T02:40:49.757Z,3.60
2023-05-05T02:41:54.604Z,3.80
2023-05-05T02:43:00.330Z,4.20
2023-05-05T02:44:05.707Z,4.13
2023-05-05T02:45:16.649Z,3.95
2023-05-05T02:46:19.891Z,4.00
2023-05-05T02:47:23.540Z,4.70
2023-05-05T02:49:31.114Z,3.95
2023-05-05T02:50:33.911Z,4.53
2023-05-05T02:51:37.458Z,4.40
2023-05-05T02:52:40.371Z,4.85
2023-05-05T02:53:44.216Z,4.13
2023-05-05T02:54:46.874Z,4.20
2023-05-05T02:55:54.481Z,4.57
2023-05-05T02:56:58.322Z,3.85
2023-05-05T02:58:07.971Z,4.32
2023-05-05T02:59:16.480Z,4.18
2023-05-05T03:00:25.961Z,4.47
2023-05-05T03:01:33.808Z,4.32
2023-05-05T03:02:53.287Z,3.97
2023-05-05T03:04:05.141Z,4.32
2023-05-05T03:05:14.646Z,4.00
2023-05-05T03:06:20.044Z,4.35
2023-05-05T03:07:27.678Z,3.78
2023-05-05T03:08:40.282Z,4.10
2023-05-05T03:09:51.722Z,3.60
2023-05-05T03:11:00.912Z,4.40
2023-05-05T03:12:07.190Z,4.03
2023-05-05T03:13:12.043Z,4.20
2023-05-05T03:14:18.533Z,4.18
2023-05-05T03:15:26.413Z,4.38
2023-05-05T03:16:32.606Z,4.50
2023-05-05T03:17:36.973Z,4.38
2023-05-05T03:18:42.678Z,3.80
2023-05-05T03:19:45.448Z,3.97
2023-05-05T03:20:51.020Z,3.70
2023-05-05T03:21:54.596Z,4.53
2023-05-05T03:22:58.618Z,3.50
2023-05-05T03:24:01.296Z,3.80
2023-05-05T03:25:05.233Z,3.75
2023-05-05T03:26:07.795Z,3.50
2023-05-05T03:27:11.332Z,3.65
2023-05-05T03:28:14.444Z,4.13
2023-05-05T03:29:18.415Z,3.95
2023-05-05T03:30:21.131Z,3.58
2023-05-05T03:31:24.922Z,3.95
2023-05-05T03:32:27.561Z,3.55
2023-05-05T03:33:31.257Z,3.50
2023-05-05T03:34:34.019Z,3.50
2023-05-05T03:35:37.611Z,3.95
2023-05-05T03:37:44.898Z,3.67
2023-05-05T03:38:49.157Z,3.67
2023-05-05T03:39:51.642Z,3.50
2023-05-05T03:40:55.256Z,3.80
2023-05-05T03:43:01.076Z,3.40
2023-05-05T03:45:07.722Z,3.15
2023-05-05T03:46:10.827Z,3.85
2023-05-05T03:47:14.502Z,3.72
2023-05-05T03:50:24.505Z,3.70
2023-05-05T03:51:28.274Z,3.30
2023-05-05T03:52:32.613Z,3.60
2023-05-05T03:53:36.391Z,3.70
2023-05-05T03:54:39.974Z,3.30
2023-05-05T03:57:48.159Z,3.10
2023-05-05T03:58:51.967Z,3.58
2023-05-05T03:59:54.566Z,3.17
2023-05-05T04:00:58.236Z,3.42
2023-05-05T04:03:04.463Z,3.40
2023-05-05T04:04:07.096Z,3.80
2023-05-05T04:05:11.245Z,3.33
2023-05-05T04:06:13.750Z,3.53
2023-05-05T04:07:17.293Z,3.58
2023-05-05T04:08:21.231Z,3.10
2023-05-05T04:09:24.885Z,3.45
2023-05-05T04:11:31.486Z,3.45
2023-05-05T04:12:34.118Z,3.55
2023-05-05T04:13:37.879Z,3.55
2023-05-05T04:14:40.705Z,3.33
2023-05-05T04:15:47.209Z,3.42
2023-05-05T04:16:49.742Z,3.25
2023-05-05T04:17:53.314Z,3.22
2023-05-05T04:21:01.461Z,3.20
2023-05-05T04:22:05.041Z,3.22
2023-05-05T04:24:12.668Z,3.10
2023-05-05T04:25:15.356Z,3.63
2023-05-05T04:26:18.993Z,3.20
2023-05-05T04:27:21.542Z,2.95
2023-05-05T04:28:25.140Z,3.13
2023-05-05T04:30:30.887Z,3.20
2023-05-05T04:31:33.501Z,3.10
2023-05-05T04:32:37.123Z,2.80
2023-05-05T04:34:42.776Z,2.90
2023-05-05T04:35:45.232Z,2.90
2023-05-05T04:36:48.913Z,3.45
2023-05-05T04:37:51.475Z,3.42
2023-05-05T04:38:55.156Z,3.10
2023-05-05T04:39:59.347Z,3.28
2023-05-05T04:41:06.575Z,3.45
2023-05-05T04:42:09.398Z,3.05
2023-05-05T04:43:13.510Z,3.08
2023-05-05T04:44:16.167Z,3.03
2023-05-05T04:45:19.835Z,3.30
2023-05-05T04:46:22.346Z,3.22
2023-05-05T04:47:26.192Z,3.10
2023-05-05T04:48:28.721Z,2.97
2023-05-05T04:49:32.593Z,2.90
2023-05-05T04:50:35.162Z,3.58
2023-05-05T04:51:42.038Z,2.88
2023-05-05T04:52:44.669Z,3.42
2023-05-05T04:53:48.770Z,3.10
2023-05-05T04:54:51.314Z,3.47
2023-05-05T04:55:56.332Z,3.03
2023-05-05T04:56:59.399Z,3.30
2023-05-05T04:58:03.162Z,3.47
2023-05-05T04:59:06.303Z,3.45
2023-05-05T05:00:11.119Z,2.92
2023-05-05T05:01:13.814Z,3.03
2023-05-05T05:02:17.424Z,3.40
2023-05-05T05:03:20.070Z,3.20
2023-05-05T05:04:24.120Z,2.95
2023-05-05T05:05:26.912Z,3.17
2023-05-05T05:06:30.712Z,2.90
2023-05-05T05:07:33.275Z,3.42
2023-05-05T05:08:36.939Z,3.15
2023-05-05T05:09:39.455Z,2.90
2023-05-05T05:10:43.782Z,3.60
2023-05-05T05:11:47.844Z,2.70
2023-05-05T05:12:51.406Z,3.00
2023-05-05T05:14:57.340Z,2.80
2023-05-05T05:18:05.585Z,3.47
2023-05-05T05:19:09.376Z,3.42
2023-05-05T05:21:15.532Z,2.65
2023-05-05T05:24:25.651Z,2.95
2023-05-05T05:25:28.304Z,3.33
2023-05-05T05:26:31.975Z,3.17
2023-05-05T05:27:35.923Z,3.90
2023-05-05T05:28:39.512Z,3.30
2023-05-05T05:30:45.403Z,3.05
2023-05-05T05:32:51.339Z,3.10
2023-05-05T05:35:59.890Z,2.38
2023-05-05T05:37:03.477Z,2.97
2023-05-05T05:40:12.224Z,2.40
2023-05-05T05:41:15.870Z,3.05
2023-05-05T05:44:25.247Z,2.70
2023-05-05T05:45:28.867Z,2.88
2023-05-05T05:47:34.658Z,2.83
2023-05-05T05:48:38.379Z,3.08
2023-05-05T05:49:40.939Z,3.10
2023-05-05T05:50:44.764Z,3.00
2023-05-05T05:51:47.765Z,2.97
2023-05-05T05:52:51.345Z,3.25
2023-05-05T05:54:57.798Z,2.90
2023-05-05T05:56:01.680Z,2.63
2023-05-05T05:57:05.535Z,2.60
2023-05-05T05:58:08.098Z,2.78
2023-05-05T05:59:13.269Z,2.78
2023-05-05T06:00:16.506Z,2.53
2023-05-05T06:01:21.461Z,3.03
2023-05-05T06:02:24.121Z,3.13
2023-05-05T06:03:28.092Z,2.60
2023-05-05T06:04:31.207Z,3.13
2023-05-05T06:05:34.803Z,2.90
2023-05-05T06:08:43.305Z,3.03
2023-05-05T06:09:47.044Z,2.50
2023-05-05T06:10:49.805Z,2.88
2023-05-05T06:11:53.891Z,3.53
2023-05-05T06:12:56.703Z,2.75
2023-05-05T06:14:00.319Z,2.70
2023-05-05T06:16:09.215Z,2.92
2023-05-05T06:17:11.992Z,2.88
2023-05-05T06:18:16.695Z,2.78
2023-05-05T06:19:20.401Z,2.63
2023-05-05T06:20:22.930Z,2.78
2023-05-05T06:21:28.006Z,3.00
2023-05-05T06:22:30.694Z,2.78
2023-05-05T06:23:34.434Z,2.80
2023-05-05T06:24:37.070Z,3.00
2023-05-05T06:25:41.345Z,2.58
2023-05-05T06:26:45.051Z,2.63
2023-05-05T06:27:47.727Z,2.60
2023-05-05T06:28:51.471Z,2.83
2023-05-05T06:29:54.125Z,2.42
2023-05-05T06:30:59.056Z,2.60
2023-05-05T06:32:01.612Z,2.67
2023-05-05T06:33:05.479Z,2.53
2023-05-05T06:34:08.097Z,2.50
2023-05-05T06:35:12.047Z,2.80
2023-05-05T06:36:14.968Z,2.75
2023-05-05T06:37:18.704Z,2.60
2023-05-05T06:38:22.756Z,2.92
2023-05-05T06:39:25.367Z,2.47
2023-05-05T06:40:28.942Z,3.05
2023-05-05T06:43:37.050Z,2.65
2023-05-05T06:44:40.591Z,2.50
2023-05-05T06:46:49.479Z,2.58
2023-05-05T06:47:52.705Z,3.00
2023-05-05T06:48:56.569Z,2.80
2023-05-05T06:49:59.151Z,3.78
2023-05-05T06:51:03.123Z,2.83
2023-05-05T06:52:05.793Z,2.70
2023-05-05T06:53:09.939Z,2.70
2023-05-05T06:54:12.613Z,2.50
2023-05-05T06:55:17.338Z,3.40
2023-05-05T06:56:20.036Z,2.50
2023-05-05T06:57:23.721Z,3.47
2023-05-05T06:58:26.321Z,3.00
2023-05-05T06:59:30.015Z,2.50
2023-05-05T07:00:33.797Z,2.60
2023-05-05T07:01:36.330Z,2.78
2023-05-05T07:02:41.480Z,2.97
2023-05-05T07:03:44.587Z,2.72
2023-05-05T07:04:48.364Z,2.63
2023-05-05T07:05:54.035Z,3.35
2023-05-05T07:06:58.469Z,2.70
2023-05-05T07:08:02.153Z,2.47
2023-05-05T07:09:04.787Z,2.65
2023-05-05T07:10:10.145Z,2.80
2023-05-05T07:11:12.847Z,2.70
2023-05-05T07:12:16.441Z,3.28
2023-05-05T07:14:24.374Z,2.60
2023-05-05T07:15:29.636Z,3.53
2023-05-05T07:16:34.977Z,2.40
2023-05-05T07:17:37.617Z,2.63
2023-05-05T07:18:42.757Z,2.47
2023-05-05T07:19:45.314Z,2.90
2023-05-05T07:20:49.113Z,2.53
2023-05-05T07:21:52.646Z,2.85
2023-05-05T07:23:58.595Z,3.08
2023-05-05T07:25:02.267Z,3.13
2023-05-05T07:27:08.947Z,2.80
2023-05-05T07:28:12.870Z,2.60
2023-05-05T07:29:15.332Z,2.63
2023-05-05T07:30:19.452Z,2.83
2023-05-05T07:31:22.543Z,2.85
2023-05-05T07:32:26.605Z,3.00
2023-05-05T07:33:30.236Z,2.67
2023-05-05T07:34:38.074Z,3.25
2023-05-05T07:35:41.900Z,2.53
2023-05-05T07:36:46.508Z,2.83
2023-05-05T07:37:50.344Z,2.55
2023-05-05T07:38:53.167Z,2.67
2023-05-05T07:39:56.958Z,2.75
2023-05-05T07:40:59.646Z,3.08
2023-05-05T07:42:03.595Z,2.70
2023-05-05T07:43:07.276Z,2.85
2023-05-05T07:44:09.951Z,3.10
2023-05-05T07:45:13.928Z,2.60
2023-05-05T07:46:17.711Z,2.83
2023-05-05T07:47:20.696Z,2.45
2023-05-05T07:48:24.499Z,2.50
2023-05-05T07:49:27.255Z,2.80
2023-05-05T07:50:32.547Z,3.20
2023-05-05T07:51:35.177Z,3.13
2023-05-05T07:52:48.466Z,2.65
2023-05-05T07:53:55.562Z,2.70
2023-05-05T07:54:58.181Z,2.80
2023-05-05T07:56:01.980Z,2.78
2023-05-05T07:57:05.800Z,2.80
2023-05-05T07:58:11.184Z,2.45
2023-05-05T07:59:13.943Z,2.72
2023-05-05T08:00:19.647Z,2.70
2023-05-05T08:01:22.168Z,2.58
2023-05-05T08:02:25.994Z,2.65
2023-05-05T08:03:28.902Z,2.60
2023-05-05T08:04:32.629Z,2.70
2023-05-05T08:05:37.938Z,2.95
2023-05-05T08:06:40.459Z,2.50
2023-05-05T08:07:44.154Z,2.67
2023-05-05T08:08:47.041Z,2.55
2023-05-05T08:09:50.724Z,2.58
2023-05-05T08:10:54.703Z,2.53
2023-05-05T08:11:58.665Z,2.72
2023-05-05T08:13:02.491Z,2.40
2023-05-05T08:14:05.311Z,2.80
2023-05-05T08:15:09.840Z,2.47
2023-05-05T08:16:13.929Z,3.45
2023-05-05T08:17:19.568Z,2.45
2023-05-05T08:18:24.506Z,2.70
2023-05-05T08:19:29.567Z,2.83
2023-05-05T08:20:33.489Z,2.38
2023-05-05T08:21:37.676Z,2.95
2023-05-05T08:22:42.093Z,2.25
2023-05-05T08:23:45.798Z,2.30
2023-05-05T08:24:48.515Z,2.80
2023-05-05T08:25:52.816Z,2.85
2023-05-05T08:26:56.908Z,2.75
2023-05-05T08:28:00.809Z,2.80
2023-05-05T08:29:04.056Z,2.72
2023-05-05T08:30:09.460Z,3.42
2023-05-05T08:31:13.134Z,3.08
2023-05-05T08:32:16.487Z,2.45
2023-05-05T08:33:20.541Z,2.38
2023-05-05T08:34:24.200Z,2.22
2023-05-05T08:35:28.366Z,2.38
2023-05-05T08:36:31.233Z,2.58
2023-05-05T08:37:36.416Z,2.70
2023-05-05T08:38:40.324Z,3.00
2023-05-05T08:39:42.854Z,2.70
2023-05-05T08:40:47.412Z,3.10
2023-05-05T08:41:50.065Z,2.50
2023-05-05T08:42:53.822Z,2.97
2023-05-05T08:43:57.780Z,2.72
2023-05-05T08:45:01.513Z,2.78
2023-05-05T08:46:06.690Z,3.13
2023-05-05T08:47:11.714Z,3.15
2023-05-05T08:48:19.439Z,2.67
2023-05-05T08:49:24.660Z,2.72
2023-05-05T08:50:29.989Z,3.13
2023-05-05T08:51:45.249Z,2.53
2023-05-05T08:52:55.403Z,3.03
2023-05-05T08:54:03.684Z,2.65
2023-05-05T08:55:14.057Z,2.83
2023-05-05T08:56:20.205Z,2.80
2023-05-05T08:57:29.026Z,2.85
2023-05-05T08:58:33.360Z,2.80
2023-05-05T08:59:38.647Z,2.40
2023-05-05T09:00:43.106Z,2.78
2023-05-05T09:01:47.142Z,3.17
2023-05-05T09:02:50.793Z,2.90
2023-05-05T09:03:55.048Z,3.30
2023-05-05T09:04:57.827Z,3.00
2023-05-05T09:06:01.694Z,3.05
2023-05-05T09:07:04.593Z,2.97
2023-05-05T09:08:10.110Z,2.65
2023-05-05T09:09:15.154Z,3.05
2023-05-05T09:10:18.277Z,2.88
2023-05-05T09:11:22.786Z,3.08
2023-05-05T09:12:25.964Z,3.20
2023-05-05T09:13:31.329Z,2.72
2023-05-05T09:14:34.151Z,3.80
2023-05-05T09:15:39.279Z,2.47
2023-05-05T09:16:44.924Z,2.78
2023-05-05T09:17:47.759Z,3.28
2023-05-05T09:18:52.683Z,3.00
2023-05-05T09:20:04.540Z,3.33
2023-05-05T09:21:21.590Z,3.17
2023-05-05T09:22:33.834Z,3.05
2023-05-05T09:23:38.888Z,3.80
2023-05-05T09:24:55.554Z,3.47
2023-05-05T09:26:09.055Z,3.20
2023-05-05T09:27:24.561Z,3.90
2023-05-05T09:28:27.463Z,3.45
2023-05-05T09:29:31.446Z,3.33
2023-05-05T09:30:36.919Z,4.10
2023-05-05T09:31:41.299Z,4.18
2023-05-05T09:32:45.819Z,3.67
2023-05-05T09:33:50.343Z,4.05
2023-05-05T09:35:00.319Z,3.45
2023-05-05T09:36:04.361Z,3.40
2023-05-05T09:37:06.960Z,3.88
2023-05-05T09:38:13.932Z,3.58
2023-05-05T09:39:21.337Z,3.58
2023-05-05T09:40:24.920Z,4.68
2023-05-05T09:42:41.999Z,3.83
2023-05-05T09:43:52.188Z,3.05
2023-05-05T09:44:57.859Z,3.72
2023-05-05T09:46:08.628Z,3.83
2023-05-05T09:47:26.054Z,2.92
2023-05-05T09:48:33.742Z,3.38
2023-05-05T09:49:38.247Z,2.90
2023-05-05T09:50:45.416Z,3.85
2023-05-05T09:51:49.517Z,3.55
2023-05-05T09:52:55.911Z,3.15
2023-05-05T09:53:59.545Z,3.53
2023-05-05T09:55:05.177Z,3.08
2023-05-05T09:56:08.723Z,3.58
2023-05-05T09:57:27.422Z,3.47
2023-05-05T09:58:32.466Z,3.85
2023-05-05T09:59:36.838Z,3.67
2023-05-05T10:00:39.644Z,3.55
2023-05-05T10:01:44.059Z,3.28
2023-05-05T10:02:50.986Z,4.13
2023-05-05T10:03:53.832Z,3.65
2023-05-05T10:05:07.150Z,2.63
2023-05-05T10:06:11.456Z,3.35
2023-05-05T10:07:25.453Z,2.88
2023-05-05T10:08:31.703Z,3.10
2023-05-05T10:09:35.840Z,2.95
2023-05-05T10:10:48.009Z,2.83
2023-05-05T10:11:51.080Z,3.00
2023-05-05T10:13:58.586Z,2.83
2023-05-05T10:15:05.535Z,2.78
2023-05-05T10:16:11.336Z,3.15
2023-05-05T10:17:15.874Z,3.55
2023-05-05T10:18:23.431Z,3.00
2023-05-05T10:19:30.189Z,3.15
2023-05-05T10:20:35.100Z,3.00
2023-05-05T10:21:42.322Z,2.78
2023-05-05T10:22:51.813Z,2.88
2023-05-05T10:25:12.826Z,2.75
2023-05-05T10:26:20.339Z,3.38
2023-05-05T10:27:26.059Z,2.85
2023-05-05T10:28:34.514Z,3.00
2023-05-05T10:29:47.139Z,3.08
2023-05-05T10:30:53.567Z,3.35
2023-05-05T10:32:21.404Z,2.53
2023-05-05T10:33:36.853Z,3.40
2023-05-05T10:34:50.210Z,2.80
2023-05-05T10:35:56.651Z,2.97
2023-05-05T10:37:00.619Z,3.28
2023-05-05T10:38:09.950Z,3.38
2023-05-05T10:39:15.788Z,2.65
2023-05-05T10:40:20.174Z,3.88
2023-05-05T10:41:26.369Z,3.33
2023-05-05T10:42:30.261Z,2.80
2023-05-05T10:43:33.035Z,3.15
2023-05-05T10:44:37.043Z,2.63
2023-05-05T10:45:41.895Z,2.90
2023-05-05T10:46:45.363Z,2.80
2023-05-05T10:48:59.321Z,3.08
2023-05-05T10:50:08.323Z,2.72
2023-05-05T10:51:35.243Z,2.90
2023-05-05T10:52:49.134Z,3.15
2023-05-05T10:53:59.787Z,2.67
2023-05-05T10:55:10.941Z,3.33
2023-05-05T10:56:20.716Z,2.80
2023-05-05T10:57:30.126Z,2.78
2023-05-05T10:58:38.455Z,3.28
2023-05-05T10:59:47.915Z,3.03
2023-05-05T11:00:53.710Z,2.63
2023-05-05T11:01:58.493Z,2.88
2023-05-05T11:03:23.498Z,3.20
2023-05-05T11:04:26.172Z,3.05
2023-05-05T11:05:29.923Z,3.10
2023-05-05T11:06:33.148Z,2.83
2023-05-05T11:07:37.192Z,2.53
2023-05-05T11:08:42.550Z,3.33
2023-05-05T11:09:55.965Z,2.80
2023-05-05T11:11:00.251Z,3.30
2023-05-05T11:12:03.928Z,2.92
2023-05-05T11:13:22.507Z,2.92
2023-05-05T11:14:25.095Z,2.33
2023-05-05T11:15:37.996Z,2.92
2023-05-05T11:16:49.043Z,3.25
2023-05-05T11:17:51.903Z,3.42
2023-05-05T11:18:55.512Z,3.10
2023-05-05T11:19:58.161Z,2.58
2023-05-05T11:21:22.767Z,3.47
2023-05-05T11:22:25.580Z,2.70
2023-05-05T11:23:30.226Z,2.80
2023-05-05T11:24:34.251Z,3.35
2023-05-05T11:25:52.247Z,3.30
2023-05-05T11:26:56.170Z,3.38
2023-05-05T11:28:09.171Z,2.95
2023-05-05T11:29:15.066Z,3.58
2023-05-05T11:30:17.963Z,3.05
2023-05-05T11:31:21.742Z,3.65
2023-05-05T11:32:25.230Z,3.33
2023-05-05T11:33:30.725Z,3.28
2023-05-05T11:34:34.593Z,3.80
2023-05-05T11:35:56.162Z,3.33
2023-05-05T11:37:03.764Z,3.75
2023-05-05T11:38:08.850Z,3.35
2023-05-05T11:39:24.806Z,2.83
2023-05-05T11:40:36.963Z,2.85
2023-05-05T11:42:06.541Z,3.58
2023-05-05T11:43:13.323Z,3.28
2023-05-05T11:44:18.737Z,3.63
2023-05-05T11:45:24.304Z,3.75
2023-05-05T11:46:26.874Z,3.13
2023-05-05T11:47:34.592Z,3.28
2023-05-05T11:48:45.318Z,3.10
2023-05-05T11:49:49.187Z,4.10
2023-05-05T11:50:53.189Z,2.95
2023-05-05T11:51:59.543Z,3.50
2023-05-05T11:53:03.772Z,3.50
2023-05-05T11:54:06.617Z,3.10
2023-05-05T11:55:11.116Z,3.70
2023-05-05T11:56:19.392Z,3.30
2023-05-05T11:57:29.871Z,2.75
2023-05-05T11:58:33.533Z,3.20
2023-05-05T11:59:50.264Z,3.13
2023-05-05T12:00:53.985Z,3.75
2023-05-05T12:01:56.704Z,3.08
2023-05-05T12:03:01.082Z,3.53
2023-05-05T12:04:03.969Z,2.78
2023-05-05T12:05:08.803Z,3.05
2023-05-05T12:06:11.523Z,3.17
2023-05-05T12:07:19.365Z,2.88
2023-05-05T12:08:22.971Z,2.65
2023-05-05T12:09:25.860Z,2.88
2023-05-05T12:10:29.682Z,3.08
2023-05-05T12:11:32.441Z,3.45
2023-05-05T12:12:37.752Z,3.08
2023-05-05T12:13:41.875Z,2.65
2023-05-05T12:14:52.087Z,3.15
2023-05-05T12:15:56.564Z,3.38
2023-05-05T12:17:01.617Z,3.20
2023-05-05T12:18:08.863Z,3.30
2023-05-05T12:19:14.500Z,2.15
2023-05-05T12:20:18.180Z,2.78
2023-05-05T12:21:21.157Z,2.83
2023-05-05T12:22:26.971Z,2.88
2023-05-05T12:23:30.599Z,2.65
2023-05-05T12:24:34.555Z,2.95
2023-05-05T12:25:39.658Z,3.25
2023-05-05T12:26:42.502Z,2.50
2023-05-05T12:27:53.694Z,3.00
2023-05-05T12:28:56.802Z,2.50
2023-05-05T12:30:13.761Z,2.70
2023-05-05T12:31:16.905Z,2.70
2023-05-05T12:32:21.886Z,3.03
2023-05-05T12:33:26.137Z,2.88
2023-05-05T12:34:29.076Z,2.55
2023-05-05T12:35:33.478Z,2.65
2023-05-05T12:36:38.680Z,2.60
2023-05-05T12:37:42.943Z,2.70
2023-05-05T12:38:45.563Z,2.50
2023-05-05T12:39:49.857Z,2.33
2023-05-05T12:40:54.089Z,2.47
2023-05-05T12:42:04.635Z,2.10
2023-05-05T12:43:07.164Z,2.75
2023-05-05T12:44:10.865Z,2.63
2023-05-05T12:46:22.386Z,2.95
2023-05-05T12:47:33.065Z,2.47
2023-05-05T12:48:38.168Z,2.28
2023-05-05T12:49:48.827Z,2.55
2023-05-05T12:50:52.490Z,2.45
2023-05-05T12:51:57.554Z,2.33
2023-05-05T12:53:00.184Z,2.40
2023-05-05T12:54:05.423Z,2.38
2023-05-05T12:55:09.260Z,2.60
2023-05-05T12:56:32.422Z,2.67
2023-05-05T12:57:36.786Z,2.17
2023-05-05T12:58:48.950Z,2.25
2023-05-05T12:59:52.971Z,2.70
2023-05-05T13:01:12.338Z,2.70
2023-05-05T13:02:16.659Z,2.50
2023-05-05T13:03:20.999Z,2.40
2023-05-05T13:04:24.667Z,2.58
2023-05-05T13:05:33.846Z,2.67
2023-05-05T13:06:36.854Z,2.30
2023-05-05T13:07:52.296Z,2.30
2023-05-05T13:08:54.737Z,2.85
2023-05-05T13:10:09.083Z,3.13
2023-05-05T13:11:11.631Z,2.35
2023-05-05T13:12:15.503Z,2.22
2023-05-05T13:13:18.220Z,2.88
2023-05-05T13:14:22.708Z,2.33
2023-05-05T13:15:25.321Z,2.50
2023-05-05T13:16:30.834Z,2.40
2023-05-05T13:17:34.954Z,2.17
2023-05-05T13:18:44.835Z,2.10
2023-05-05T13:19:48.802Z,2.30
2023-05-05T13:20:52.051Z,2.60
2023-05-05T13:21:56.659Z,2.50
2023-05-05T13:22:59.715Z,2.00
2023-05-05T13:24:18.337Z,2.28
2023-05-05T13:25:24.837Z,2.63
2023-05-05T13:26:27.992Z,3.03
2023-05-05T13:27:31.756Z,2.65
2023-05-05T13:28:34.541Z,2.78
2023-05-05T13:29:38.600Z,2.70
2023-05-05T13:30:42.111Z,2.63
2023-05-05T13:31:47.570Z,3.20
2023-05-05T13:32:51.249Z,2.58
2023-05-05T13:33:53.860Z,2.60
2023-05-05T13:34:58.231Z,2.33
2023-05-05T13:36:00.907Z,2.50
2023-05-05T13:37:04.626Z,2.40
2023-05-05T13:38:07.254Z,3.40
2023-05-05T13:39:11.541Z,2.75
2023-05-05T13:40:15.864Z,2.72
2023-05-05T13:41:18.728Z,3.22
2023-05-05T13:42:22.382Z,2.88
2023-05-05T13:43:24.969Z,2.65
2023-05-05T13:44:28.716Z,2.40
2023-05-05T13:45:31.617Z,2.28
2023-05-05T13:46:35.261Z,2.42
2023-05-05T13:48:43.636Z,2.75
2023-05-05T13:49:47.321Z,2.60
2023-05-05T13:50:50.136Z,2.60
2023-05-05T13:51:53.853Z,2.40
2023-05-05T13:52:56.429Z,2.83
2023-05-05T13:54:00.640Z,2.92
2023-05-05T13:55:03.217Z,2.40
2023-05-05T13:56:08.405Z,2.92
2023-05-05T13:57:12.536Z,2.90
2023-05-05T13:58:15.214Z,2.92
2023-05-05T13:59:18.868Z,3.38
2023-05-05T14:00:21.962Z,3.13
2023-05-05T14:01:28.718Z,3.63
2023-05-05T14:02:31.302Z,3.20
2023-05-05T14:03:36.528Z,3.90
2023-05-05T14:04:39.147Z,3.15
2023-05-05T14:05:43.706Z,2.60
2023-05-05T14:06:46.777Z,2.63
2023-05-05T14:07:50.392Z,2.70
2023-05-05T14:08:53.083Z,2.72
2023-05-05T14:09:56.746Z,2.55
2023-05-05T14:10:59.728Z,3.05
2023-05-05T14:12:03.881Z,3.20
2023-05-05T14:13:06.992Z,3.13
2023-05-05T14:14:10.974Z,2.47
2023-05-05T14:15:13.645Z,3.75
2023-05-05T14:16:17.488Z,2.65
2023-05-05T14:17:20.749Z,2.55
2023-05-05T14:18:24.336Z,2.90
2023-05-05T14:19:29.469Z,3.10
2023-05-05T14:20:32.137Z,2.95
2023-05-05T14:21:35.955Z,3.13
2023-05-05T14:22:38.650Z,3.10
2023-05-05T14:23:42.750Z,2.85
2023-05-05T14:24:45.208Z,2.90
2023-05-05T14:25:48.967Z,3.35
2023-05-05T14:26:52.586Z,3.50
2023-05-05T14:27:56.898Z,3.35
2023-05-05T14:29:01.042Z,3.63
2023-05-05T14:30:03.921Z,2.88
2023-05-05T14:31:08.298Z,3.05
2023-05-05T14:32:11.254Z,2.90
2023-05-05T14:33:15.051Z,2.75
2023-05-05T14:34:18.730Z,2.85
2023-05-05T14:36:26.999Z,3.20
2023-05-05T14:37:31.908Z,3.05
2023-05-05T14:38:36.269Z,2.75
2023-05-05T14:39:39.145Z,3.05
2023-05-05T14:40:43.022Z,3.08
2023-05-05T14:41:45.657Z,2.90
2023-05-05T14:42:51.020Z,3.10
2023-05-05T14:43:54.027Z,3.10
2023-05-05T14:44:57.662Z,3.10
2023-05-05T14:46:02.655Z,2.85
2023-05-05T14:47:06.535Z,2.78
2023-05-05T14:48:09.578Z,2.50
2023-05-05T14:49:13.801Z,3.15
2023-05-05T14:50:17.277Z,2.97
2023-05-05T14:51:41.887Z,2.80
2023-05-05T14:52:44.762Z,3.30
2023-05-05T14:53:48.447Z,3.45
2023-05-05T14:54:51.471Z,3.45
2023-05-05T14:55:55.036Z,3.33
2023-05-05T14:56:58.532Z,3.20
2023-05-05T14:58:02.373Z,3.08
2023-05-05T14:59:06.194Z,3.20
2023-05-05T15:00:11.306Z,3.38
2023-05-05T15:01:15.394Z,3.88
2023-05-05T15:02:18.144Z,3.50
2023-05-05T15:03:22.136Z,4.10
2023-05-05T15:04:25.107Z,3.30
2023-05-05T15:05:29.159Z,3.70
2023-05-05T15:06:31.901Z,3.80
2023-05-05T15:07:37.233Z,4.30
2023-05-05T15:08:40.757Z,3.83
2023-05-05T15:09:43.420Z,3.95
2023-05-05T15:10:47.427Z,3.83
2023-05-05T15:11:50.654Z,3.22
2023-05-05T15:12:54.291Z,3.25
2023-05-05T15:13:56.980Z,3.45
2023-05-05T15:15:00.564Z,3.75
2023-05-05T15:16:03.632Z,2.95
2023-05-05T15:17:07.580Z,4.07
2023-05-05T15:18:11.860Z,3.05
2023-05-05T15:19:14.422Z,2.90
2023-05-05T15:20:18.263Z,3.33
2023-05-05T15:21:21.237Z,3.35
2023-05-05T15:22:25.164Z,3.58
2023-05-05T15:23:30.318Z,3.45
2023-05-05T15:24:33.605Z,3.55
2023-05-05T15:25:37.278Z,3.55
2023-05-05T15:26:40.229Z,2.65
2023-05-05T15:27:44.325Z,3.63
2023-05-05T15:28:48.256Z,3.05